createdAt,value
2023-04-11T00:01:49.932Z,100821.34
2023-04-11T00:04:39.102Z,100815.63
2023-04-11T00:07:24.376Z,100824.41
2023-04-11T00:10:09.863Z,100821.09
2023-04-11T00:12:56.736Z,100828.16
2023-04-11T00:15:42.003Z,100830.69
2023-04-11T00:18:27.035Z,100828.91
2023-04-11T00:21:12.341Z,100841.19
2023-04-11T00:23:57.313Z,100853.50
2023-04-11T00:26:42.228Z,100845.84
2023-04-11T00:29:28.030Z,100858.94
2023-04-11T00:32:12.970Z,100861.72
2023-04-11T00:34:59.171Z,100867.09
2023-04-11T00:37:45.222Z,100854.06
2023-04-11T00:40:30.396Z,100861.19
2023-04-11T00:43:15.747Z,100865.41
2023-04-11T00:46:01.133Z,100866.50
2023-04-11T00:48:47.587Z,100878.72
2023-04-11T00:51:32.735Z,100873.03
2023-04-11T00:54:18.344Z,100883.22
2023-04-11T00:57:04.668Z,100875.13
2023-04-11T00:59:51.522Z,100896.41
2023-04-11T01:02:43.231Z,100893.97
2023-04-11T01:05:31.531Z,100897.59
2023-04-11T01:08:17.563Z,100892.31
2023-04-11T01:11:03.645Z,100908.84
2023-04-11T01:13:50.636Z,100911.44
2023-04-11T01:16:35.603Z,100910.63
2023-04-11T01:19:22.204Z,100900.41
2023-04-11T01:22:09.013Z,100900.19
2023-04-11T01:24:54.002Z,100885.78
2023-04-11T01:27:39.122Z,100899.53
2023-04-11T01:30:24.132Z,100890.84
2023-04-11T01:33:10.826Z,100903.97
2023-04-11T01:35:55.867Z,100900.41
2023-04-11T01:38:41.215Z,100910.06
2023-04-11T01:41:27.586Z,100899.66
2023-04-11T01:44:13.576Z,100902.34
2023-04-11T01:46:58.660Z,100904.50
2023-04-11T01:49:43.825Z,100914.72
2023-04-11T01:52:28.770Z,100914.72
2023-04-11T01:55:13.948Z,100929.56
2023-04-11T01:57:58.982Z,100914.94
2023-04-11T02:00:44.177Z,100928.63
2023-04-11T02:03:29.670Z,100927.13
2023-04-11T02:06:16.129Z,100939.44
2023-04-11T02:09:01.138Z,100930.91
2023-04-11T02:11:46.454Z,100938.00
2023-04-11T02:14:58.023Z,100945.03
2023-04-11T02:17:45.106Z,100950.25
2023-04-11T02:20:30.314Z,100948.66
2023-04-11T02:23:16.260Z,100947.19
2023-04-11T02:26:02.377Z,100947.28
2023-04-11T02:28:47.615Z,100940.25
2023-04-11T02:31:32.699Z,100942.06
2023-04-11T02:34:17.710Z,100947.44
2023-04-11T02:37:02.970Z,100955.47
2023-04-11T02:39:48.108Z,100959.91
2023-04-11T02:42:33.175Z,100955.06
2023-04-11T02:45:18.560Z,100966.19
2023-04-11T02:48:03.965Z,100963.81
2023-04-11T02:50:48.900Z,100965.50
2023-04-11T02:53:34.193Z,100955.44
2023-04-11T02:56:20.185Z,100964.81
2023-04-11T02:59:06.739Z,100970.06
2023-04-11T03:01:58.357Z,100964.03
2023-04-11T03:04:43.643Z,100962.34
2023-04-11T03:07:28.747Z,100965.13
2023-04-11T03:10:13.965Z,100957.44
2023-04-11T03:12:59.172Z,100965.47
2023-04-11T03:15:44.346Z,100973.28
2023-04-11T03:18:29.549Z,100976.09
2023-04-11T03:21:14.855Z,100978.75
2023-04-11T03:23:59.886Z,100970.28
2023-04-11T03:26:45.178Z,100974.56
2023-04-11T03:29:30.410Z,100979.06
2023-04-11T03:32:15.570Z,100971.63
2023-04-11T03:35:01.841Z,100979.41
2023-04-11T03:37:48.064Z,100990.75
2023-04-11T03:40:33.403Z,100986.34
2023-04-11T03:43:19.193Z,100988.16
2023-04-11T03:46:04.672Z,100985.69
2023-04-11T03:48:50.042Z,100987.72
2023-04-11T03:51:35.033Z,100984.59
2023-04-11T03:54:20.897Z,100987.81
2023-04-11T03:57:06.102Z,100975.16
2023-04-11T03:59:51.324Z,100980.06
2023-04-11T04:02:36.869Z,100971.50
2023-04-11T04:05:22.225Z,100974.97
2023-04-11T04:08:08.000Z,100975.00
2023-04-11T04:10:52.799Z,100970.66
2023-04-11T04:13:37.749Z,100972.41
2023-04-11T04:16:22.607Z,100973.41
2023-04-11T04:19:07.915Z,100972.63
2023-04-11T04:21:53.727Z,100980.44
2023-04-11T04:24:39.610Z,100977.97
2023-04-11T04:27:25.164Z,100981.50
2023-04-11T04:30:15.849Z,100983.94
2023-04-11T04:33:01.033Z,100980.66
2023-04-11T04:35:46.375Z,100996.28
2023-04-11T04:38:32.848Z,100979.59
2023-04-11T04:41:22.109Z,100991.56
2023-04-11T04:44:09.779Z,100996.09
2023-04-11T04:46:56.077Z,101004.91
2023-04-11T04:49:41.631Z,101002.66
2023-04-11T04:52:28.437Z,101017.97
2023-04-11T04:55:14.226Z,101016.44
2023-04-11T04:57:59.417Z,101025.88
2023-04-11T05:00:44.725Z,101015.47
2023-04-11T05:03:34.659Z,101027.53
2023-04-11T05:06:20.026Z,101028.47
2023-04-11T05:09:06.292Z,101018.25
2023-04-11T05:11:51.707Z,101026.78
2023-04-11T05:14:37.130Z,101033.81
2023-04-11T05:17:25.379Z,101040.81
2023-04-11T05:20:11.445Z,101039.19
2023-04-11T05:22:56.910Z,101032.00
2023-04-11T05:25:42.303Z,101042.13
2023-04-11T05:28:27.422Z,101037.84
2023-04-11T05:31:12.542Z,101050.91
2023-04-11T05:33:58.681Z,101047.59
2023-04-11T05:36:46.398Z,101053.59
2023-04-11T05:39:31.524Z,101046.63
2023-04-11T05:42:19.591Z,101040.69
2023-04-11T05:45:04.853Z,101042.31
2023-04-11T05:47:49.914Z,101045.78
2023-04-11T05:50:35.975Z,101051.00
2023-04-11T05:53:21.299Z,101055.06
2023-04-11T05:56:07.145Z,101061.81
2023-04-11T05:58:52.445Z,101068.44
2023-04-11T06:01:39.728Z,101077.59
2023-04-11T06:04:25.413Z,101080.06
2023-04-11T06:07:11.004Z,101077.47
2023-04-11T06:09:56.227Z,101088.47
2023-04-11T06:12:41.592Z,101091.69
2023-04-11T06:15:27.617Z,101084.63
2023-04-11T06:18:13.568Z,101092.25
2023-04-11T06:20:58.866Z,101089.44
2023-04-11T06:23:44.017Z,101092.66
2023-04-11T06:26:29.406Z,101095.00
2023-04-11T06:29:14.717Z,101094.66
2023-04-11T06:31:59.594Z,101095.31
2023-04-11T06:34:45.059Z,101086.28
2023-04-11T06:37:30.317Z,101092.06
2023-04-11T06:40:17.267Z,101092.41
2023-04-11T06:43:03.167Z,101092.09
2023-04-11T06:45:49.709Z,101087.47
2023-04-11T06:48:34.860Z,101099.06
2023-04-11T06:51:20.057Z,101091.72
2023-04-11T06:54:06.383Z,101080.16
2023-04-11T06:56:52.058Z,101076.28
2023-04-11T06:59:37.534Z,101087.53
2023-04-11T07:02:25.203Z,101078.66
2023-04-11T07:05:11.030Z,101099.44
2023-04-11T07:07:56.228Z,101108.34
2023-04-11T07:10:41.541Z,101103.56
2023-04-11T07:13:26.471Z,101107.56
2023-04-11T07:16:11.563Z,101115.69
2023-04-11T07:18:59.192Z,101113.56
2023-04-11T07:21:44.621Z,101113.97
2023-04-11T07:24:30.568Z,101117.25
2023-04-11T07:27:17.160Z,101109.00
2023-04-11T07:30:03.532Z,101107.84
2023-04-11T07:32:48.417Z,101107.44
2023-04-11T07:35:34.809Z,101104.19
2023-04-11T07:38:27.406Z,101105.31
2023-04-11T07:41:12.272Z,101099.91
2023-04-11T07:43:57.769Z,101104.97
2023-04-11T07:46:43.173Z,101107.31
2023-04-11T07:49:28.351Z,101107.47
2023-04-11T07:52:14.506Z,101097.09
2023-04-11T07:54:59.859Z,101094.41
2023-04-11T07:57:44.802Z,101102.09
2023-04-11T08:00:32.621Z,101087.69
2023-04-11T08:03:17.975Z,101073.47
2023-04-11T08:06:03.173Z,101072.75
2023-04-11T08:08:49.270Z,101079.97
2023-04-11T08:11:35.087Z,101077.63
2023-04-11T08:14:20.317Z,101089.50
2023-04-11T08:17:14.679Z,101074.75
2023-04-11T08:20:09.783Z,101084.38
2023-04-11T08:22:54.847Z,101079.91
2023-04-11T08:25:40.322Z,101092.53
2023-04-11T08:28:25.684Z,101072.97
2023-04-11T08:31:12.670Z,101074.63
2023-04-11T08:34:00.746Z,101079.59
2023-04-11T08:36:46.275Z,101088.28
2023-04-11T08:39:31.246Z,101080.97
2023-04-11T08:42:28.044Z,101086.69
2023-04-11T08:45:13.346Z,101075.97
2023-04-11T08:47:58.382Z,101077.88
2023-04-11T08:50:44.234Z,101075.81
2023-04-11T08:53:30.458Z,101083.59
2023-04-11T08:56:17.079Z,101086.25
2023-04-11T08:59:03.173Z,101072.97
2023-04-11T09:01:49.725Z,101072.06
2023-04-11T09:04:42.923Z,101070.09
2023-04-11T09:07:29.102Z,101075.56
2023-04-11T09:10:20.944Z,101059.81
2023-04-11T09:13:28.222Z,101070.69
2023-04-11T09:16:13.990Z,101076.28
2023-04-11T09:18:59.314Z,101072.38
2023-04-11T09:21:50.175Z,101076.19
2023-04-11T09:24:36.716Z,101070.56
2023-04-11T09:27:24.505Z,101073.91
2023-04-11T09:30:27.595Z,101060.38
2023-04-11T09:33:25.489Z,101072.88
2023-04-11T09:36:22.800Z,101066.91
2023-04-11T09:39:18.546Z,101060.41
2023-04-11T09:42:23.152Z,101064.19
2023-04-11T09:45:19.877Z,101067.72
2023-04-11T09:48:05.404Z,101057.19
2023-04-11T09:50:51.757Z,101068.25
2023-04-11T09:53:37.779Z,101076.06
2023-04-11T09:56:24.078Z,101066.31
2023-04-11T09:59:09.812Z,101052.19
2023-04-11T10:01:56.846Z,101069.00
2023-04-11T10:04:43.260Z,101073.19
2023-04-11T10:07:29.976Z,101057.84
2023-04-11T10:10:20.520Z,101043.41
2023-04-11T10:13:44.361Z,101041.97
2023-04-11T10:16:32.481Z,101014.63
2023-04-11T10:19:17.921Z,101027.63
2023-04-11T10:22:03.122Z,101023.88
2023-04-11T10:25:21.189Z,101018.25
2023-04-11T10:28:06.410Z,101006.19
2023-04-11T10:31:09.026Z,101003.78
2023-04-11T10:34:15.879Z,100999.00
2023-04-11T10:37:04.496Z,101001.75
2023-04-11T10:39:58.220Z,101008.13
2023-04-11T10:42:44.514Z,100997.44
2023-04-11T10:45:30.998Z,100999.69
2023-04-11T10:48:16.325Z,100990.84
2023-04-11T10:51:27.887Z,100980.81
2023-04-11T10:54:25.637Z,100992.06
2023-04-11T10:57:10.906Z,100981.63
2023-04-11T10:59:57.087Z,100980.50
2023-04-11T11:02:42.743Z,100970.69
2023-04-11T11:05:28.140Z,100972.22
2023-04-11T11:08:13.695Z,100958.19
2023-04-11T11:11:04.135Z,100965.59
2023-04-11T11:13:53.559Z,100951.09
2023-04-11T11:16:38.736Z,100953.22
2023-04-11T11:19:24.114Z,100954.91
2023-04-11T11:22:18.366Z,100953.44
2023-04-11T11:25:10.350Z,100949.41
2023-04-11T11:28:07.361Z,100950.59
2023-04-11T11:30:57.182Z,100930.41
2023-04-11T11:33:42.211Z,100944.41
2023-04-11T11:36:28.722Z,100943.22
2023-04-11T11:39:14.250Z,100941.88
2023-04-11T11:50:57.642Z,100936.03
2023-04-11T11:53:43.003Z,100950.44
2023-04-11T11:56:28.136Z,100949.16
2023-04-11T11:59:13.456Z,100941.91
2023-04-11T12:01:58.691Z,100944.56
2023-04-11T12:04:44.615Z,100951.81
2023-04-11T12:07:34.424Z,100925.69
2023-04-11T12:10:19.626Z,100930.00
2023-04-11T12:13:23.221Z,100924.28
2023-04-11T12:16:09.016Z,100923.91
2023-04-11T12:18:58.345Z,100922.50
2023-04-11T12:21:43.514Z,100914.84
2023-04-11T12:24:28.554Z,100913.31
2023-04-11T12:27:13.880Z,100893.47
2023-04-11T12:32:45.303Z,100908.53
2023-04-11T12:35:32.259Z,100889.34
2023-04-11T12:38:18.249Z,100896.81
2023-04-11T12:41:29.702Z,100881.25
2023-04-11T12:44:08.662Z,100885.41
2023-04-11T12:46:53.748Z,100877.78
2023-04-11T12:49:40.002Z,100867.81
2023-04-11T12:52:25.395Z,100883.34
2023-04-11T12:55:10.495Z,100859.19
2023-04-11T12:57:56.041Z,100863.53
2023-04-11T13:00:41.328Z,100840.44
2023-04-11T13:03:27.251Z,100853.50
2023-04-11T13:06:12.814Z,100849.66
2023-04-11T13:08:58.198Z,100849.88
2023-04-11T13:11:43.647Z,100858.84
2023-04-11T13:14:29.204Z,100844.72
2023-04-11T13:17:14.073Z,100839.47
2023-04-11T13:19:59.132Z,100830.84
2023-04-11T13:22:44.593Z,100829.03
2023-04-11T13:25:29.533Z,100828.06
2023-04-11T13:28:14.790Z,100829.91
2023-04-11T13:30:59.720Z,100837.97
2023-04-11T13:33:47.341Z,100841.06
2023-04-11T13:36:32.374Z,100849.25
2023-04-11T13:39:17.702Z,100827.84
2023-04-11T13:42:03.047Z,100823.59
2023-04-11T13:44:48.369Z,100812.28
2023-04-11T13:47:36.058Z,100782.72
2023-04-11T13:50:23.785Z,100790.69
2023-04-11T13:53:10.100Z,100798.00
2023-04-11T13:55:55.660Z,100776.72
2023-04-11T13:58:41.078Z,100749.94
2023-04-11T14:01:26.331Z,100781.75
2023-04-11T14:04:11.872Z,100778.34
2023-04-11T14:06:57.312Z,100760.72
2023-04-11T14:09:42.739Z,100763.34
2023-04-11T14:12:27.538Z,100768.59
2023-04-11T14:15:12.646Z,100769.03
2023-04-11T14:17:57.958Z,100767.72
2023-04-11T14:20:43.249Z,100767.13
2023-04-11T14:23:29.224Z,100757.97
2023-04-11T14:26:14.269Z,100745.84
2023-04-11T14:28:59.439Z,100732.81
2023-04-11T14:31:44.866Z,100750.97
2023-04-11T14:34:30.086Z,100735.16
2023-04-11T14:37:15.207Z,100732.16
2023-04-11T14:40:11.226Z,100725.53
2023-04-11T14:42:58.305Z,100724.69
2023-04-11T14:45:43.343Z,100714.63
2023-04-11T14:48:29.396Z,100713.91
2023-04-11T14:51:14.286Z,100703.31
2023-04-11T14:53:59.946Z,100699.88
2023-04-11T14:56:45.404Z,100697.25
2023-04-11T14:59:30.839Z,100703.22
2023-04-11T15:02:15.895Z,100701.75
2023-04-11T15:05:01.063Z,100685.66
2023-04-11T15:07:48.070Z,100670.91
2023-04-11T15:10:33.484Z,100663.88
2023-04-11T15:13:18.747Z,100670.13
2023-04-11T15:16:04.086Z,100662.59
2023-04-11T15:18:49.846Z,100654.78
2023-04-11T15:21:35.369Z,100639.97
2023-04-11T15:24:21.480Z,100633.81
2023-04-11T15:27:06.594Z,100628.38
2023-04-11T15:29:51.845Z,100632.25
2023-04-11T15:32:42.074Z,100627.94
2023-04-11T15:35:27.413Z,100618.13
2023-04-11T15:38:14.327Z,100622.63
2023-04-11T15:41:02.519Z,100593.72
2023-04-11T15:43:47.402Z,100604.84
2023-04-11T15:46:32.554Z,100593.34
2023-04-11T15:49:17.640Z,100605.06
2023-04-11T15:52:02.585Z,100610.69
2023-04-11T15:54:47.487Z,100597.44
2023-04-11T15:57:32.963Z,100595.41
2023-04-11T16:00:19.672Z,100588.50
2023-04-11T16:03:06.334Z,100579.00
2023-04-11T16:05:53.476Z,100564.22
2023-04-11T16:08:38.713Z,100569.84
2023-04-11T16:11:23.976Z,100570.91
2023-04-11T16:14:11.077Z,100569.03
2023-04-11T16:16:57.373Z,100557.09
2023-04-11T16:19:42.569Z,100542.13
2023-04-11T16:22:27.838Z,100543.00
2023-04-11T16:25:14.652Z,100548.09
2023-04-11T16:27:59.854Z,100525.47
2023-04-11T16:30:45.257Z,100513.72
2023-04-11T16:33:30.438Z,100515.13
2023-04-11T16:36:15.839Z,100516.47
2023-04-11T16:39:04.218Z,100506.09
2023-04-11T16:41:49.636Z,100492.50
2023-04-11T16:44:34.661Z,100485.03
2023-04-11T16:47:20.540Z,100484.31
2023-04-11T16:50:06.896Z,100463.28
2023-04-11T16:52:52.192Z,100462.03
2023-04-11T16:55:37.307Z,100458.31
2023-04-11T16:58:22.825Z,100452.25
2023-04-11T17:01:07.883Z,100424.22
2023-04-11T17:03:53.947Z,100432.06
2023-04-11T17:06:39.437Z,100403.41
2023-04-11T17:09:24.809Z,100416.47
2023-04-11T17:12:10.523Z,100414.59
2023-04-11T17:14:56.007Z,100389.31
2023-04-11T17:17:41.208Z,100391.09
2023-04-11T17:20:26.508Z,100391.09
2023-04-11T17:23:12.256Z,100371.22
2023-04-11T17:25:58.401Z,100362.72
2023-04-11T17:28:44.351Z,100352.41
2023-04-11T17:31:29.660Z,100346.88
2023-04-11T17:34:15.172Z,100315.91
2023-04-11T17:37:00.512Z,100306.94
2023-04-11T17:39:46.391Z,100308.41
2023-04-11T17:42:31.505Z,100287.91
2023-04-11T17:45:18.630Z,100279.34
2023-04-11T17:48:08.070Z,100244.91
2023-04-11T17:50:53.224Z,100274.25
2023-04-11T17:53:38.256Z,100251.66
2023-04-11T17:56:24.565Z,100221.25
2023-04-11T17:59:09.682Z,100226.47
2023-04-11T18:01:55.918Z,100204.97
2023-04-11T18:04:42.522Z,100204.31
2023-04-11T18:07:27.994Z,100190.53
2023-04-11T18:10:21.958Z,100190.13
2023-04-11T18:13:07.521Z,100166.31
2023-04-11T18:15:53.025Z,100177.38
2023-04-11T18:18:38.092Z,100163.56
2023-04-11T18:21:22.846Z,100148.34
2023-04-11T18:24:08.190Z,100142.66
2023-04-11T18:26:53.385Z,100140.88
2023-04-11T18:29:38.549Z,100143.63
2023-04-11T18:32:27.043Z,100143.94
2023-04-11T18:35:15.054Z,100117.44
2023-04-11T18:38:00.307Z,100106.25
2023-04-11T18:40:46.072Z,100111.78
2023-04-11T18:43:31.594Z,100104.69
2023-04-11T18:46:16.906Z,100105.91
2023-04-11T18:49:04.534Z,100087.84
2023-04-11T18:51:52.727Z,100091.59
2023-04-11T18:54:37.973Z,100086.47
2023-04-11T18:57:25.882Z,100084.81
2023-04-11T19:00:18.516Z,100067.47
2023-04-11T19:03:05.161Z,100096.09
2023-04-11T19:05:51.685Z,100060.81
2023-04-11T19:08:36.901Z,100045.78
2023-04-11T19:11:22.258Z,100044.50
2023-04-11T19:14:09.056Z,100023.28
2023-04-11T19:16:56.002Z,100024.13
2023-04-11T19:19:41.398Z,100005.47
2023-04-11T19:22:26.464Z,100006.28
2023-04-11T19:25:12.261Z,99995.75
2023-04-11T19:27:57.284Z,100014.84
2023-04-11T19:30:42.328Z,99989.78
2023-04-11T19:33:27.335Z,99956.75
2023-04-11T19:36:12.708Z,99947.69
2023-04-11T19:38:58.009Z,99943.28
2023-04-11T19:41:46.520Z,99934.97
2023-04-11T19:44:31.781Z,99909.31
2023-04-11T19:47:16.626Z,99896.09
2023-04-11T19:50:02.471Z,99906.81
2023-04-11T19:52:47.379Z,99904.78
2023-04-11T19:55:32.924Z,99893.66
2023-04-11T19:58:18.419Z,99890.09
2023-04-11T20:01:04.752Z,99869.19
2023-04-11T20:03:53.533Z,99852.22
2023-04-11T20:06:38.686Z,99847.72
2023-04-11T20:09:24.231Z,99854.13
2023-04-11T20:12:09.197Z,99827.41
2023-04-11T20:14:54.283Z,99821.13
2023-04-11T20:17:39.407Z,99809.03
2023-04-11T20:20:29.194Z,99797.72
2023-04-11T20:23:15.881Z,99779.44
2023-04-11T20:26:01.214Z,99766.38
2023-04-11T20:28:46.261Z,99773.16
2023-04-11T20:31:31.378Z,99742.63
2023-04-11T20:34:16.850Z,99737.66
2023-04-11T20:37:04.077Z,99740.88
2023-04-11T20:39:50.887Z,99721.88
2023-04-11T20:42:39.752Z,99739.19
2023-04-11T20:45:27.990Z,99719.84
2023-04-11T20:48:13.560Z,99715.34
2023-04-11T20:51:01.666Z,99723.91
2023-04-11T20:53:46.780Z,99727.47
2023-04-11T20:56:35.343Z,99718.19
2023-04-11T20:59:20.718Z,99722.47
2023-04-11T21:02:06.000Z,99711.56
2023-04-11T21:04:53.006Z,99693.97
2023-04-11T21:07:38.911Z,99701.56
2023-04-11T21:10:24.506Z,99683.97
2023-04-11T21:13:09.731Z,99689.09
2023-04-11T21:15:54.749Z,99686.59
2023-04-11T21:18:40.055Z,99666.31
2023-04-11T21:21:25.697Z,99671.63
2023-04-11T21:24:11.004Z,99673.19
2023-04-11T21:26:56.704Z,99682.56
2023-04-11T21:29:41.976Z,99664.03
2023-04-11T21:32:28.094Z,99650.25
2023-04-11T21:35:13.630Z,99629.13
2023-04-11T21:37:58.796Z,99622.00
2023-04-11T21:40:44.073Z,99649.78
2023-04-11T21:43:29.874Z,99649.53
2023-04-11T21:46:14.950Z,99627.66
2023-04-11T21:49:00.546Z,99631.94
2023-04-11T21:51:45.707Z,99654.25
2023-04-11T21:54:30.543Z,99638.81
2023-04-11T21:57:15.504Z,99633.13
2023-04-11T22:00:00.628Z,99617.94
2023-04-11T22:02:46.231Z,99604.59
2023-04-11T22:05:31.519Z,99603.78
2023-04-11T22:08:20.127Z,99589.91
2023-04-11T22:11:14.603Z,99575.16
2023-04-11T22:14:00.911Z,99571.47
2023-04-11T22:16:58.190Z,99561.97
2023-04-11T22:19:44.063Z,99557.56
2023-04-11T22:22:30.216Z,99578.47
2023-04-11T22:25:18.137Z,99547.28
2023-04-11T22:28:04.041Z,99572.31
2023-04-11T22:30:49.411Z,99574.94
2023-04-11T22:33:34.479Z,99561.41
2023-04-11T22:36:19.680Z,99548.28
2023-04-11T22:39:06.776Z,99565.00
2023-04-11T22:41:53.433Z,99575.13
2023-04-11T22:44:38.824Z,99557.31
2023-04-11T22:47:24.137Z,99554.59
2023-04-11T22:50:10.104Z,99566.69
2023-04-11T22:52:55.601Z,99566.94
2023-04-11T22:55:41.106Z,99559.44
2023-04-11T22:58:26.234Z,99562.44
2023-04-11T23:01:15.563Z,99556.38
2023-04-11T23:04:01.529Z,99548.31
2023-04-11T23:06:49.486Z,99564.34
2023-04-11T23:09:34.608Z,99582.16
2023-04-11T23:12:19.763Z,99574.44
2023-04-11T23:15:05.855Z,99562.34
2023-04-11T23:17:51.144Z,99565.06
2023-04-11T23:20:37.310Z,99565.91
2023-04-11T23:23:22.748Z,99548.00
2023-04-11T23:26:07.741Z,99534.09
2023-04-11T23:28:53.159Z,99554.19
2023-04-11T23:31:38.292Z,99527.22
2023-04-11T23:34:23.484Z,99545.25
2023-04-11T23:37:09.153Z,99542.78
2023-04-11T23:39:54.778Z,99542.06
2023-04-11T23:42:40.486Z,99513.13
2023-04-11T23:45:25.748Z,99537.19
2023-04-11T23:48:10.918Z,99533.28
2023-04-11T23:50:56.633Z,99548.94
2023-04-11T23:53:42.774Z,99542.31
2023-04-11T23:56:27.939Z,99545.16
2023-04-11T23:59:13.155Z,99541.13
